Terminal Aerodrome Forecast
Issued by NWS Billings, MT

Home | Current Version | Previous Version | Text Only | Print | Product List | Glossary On
Versions: 1 2 3 4 5 6 7 8 9 10 11 12 13 14 15 16 17 18 19 20 21 22 23 24 25 26 27 28 29 30 31 32
000
FTUS45 KBYZ 282011 AAC
TAFBIL
TAF AMD
KBIL 282011Z 2820/2918 03011KT 6SM -SN BR BKN035
      TEMPO 2820/2823 2SM -SN BR BKN020
     FM282300 03014G23KT 1SM -SN BLSN BKN005 OVC015
     FM290900 08012KT 3SM -SN BR SCT005 OVC020=

USA.gov is the U.S. government's official web portal to all federal, state and local government web resources and services.